Middleburg, Virginia
Current Conditions -  °F | °C
As of 12:55 PM on Friday 24 Oct 2014 (Local Time) from KJYO Reporting Station
Clear Clear  
Wind Chill: 63°   Ceiling: Unl
Heat Index: 63°   Visibility: 10mi
Dew Point: 45°   Wind: 18mph
Humidity: 52%   Direction: 330°NNW
Pressure: 29.97"   Gusts: 23mph
Location:  38.97°N, 77.74°W
Report Text: KJYO 241655Z AUTO 33016G20KT 10SM CLR 17/07 A2997 RMK AO2
Loading
Personal Weather Stations






























Interactive Weather Map
Tropical Storm Tracking
New forecast layout! Learn more

10-Day Weather Forecast

Advertisements
Track Severe Weather on mobile